sensor_id;sensor_type;location;lat;lon;timestamp;temperature;humidity
6738;DHT22;3406;49.902;8.596;2023-11-19T00:00:46;8.90;99.90
6738;DHT22;3406;49.902;8.596;2023-11-19T00:03:13;8.90;99.90
6738;DHT22;3406;49.902;8.596;2023-11-19T00:05:41;8.90;99.90
6738;DHT22;3406;49.902;8.596;2023-11-19T00:08:08;8.90;99.90
6738;DHT22;3406;49.902;8.596;2023-11-19T00:10:35;9.00;99.90
6738;DHT22;3406;49.902;8.596;2023-11-19T00:13:01;8.90;99.90
6738;DHT22;3406;49.902;8.596;2023-11-19T00:15:29;9.00;99.90
6738;DHT22;3406;49.902;8.596;2023-11-19T00:17:56;9.00;99.90
6738;DHT22;3406;49.902;8.596;2023-11-19T00:20:23;9.00;99.90
6738;DHT22;3406;49.902;8.596;2023-11-19T00:22:51;9.00;99.90
6738;DHT22;3406;49.902;8.596;2023-11-19T00:25:17;9.00;99.90
6738;DHT22;3406;49.902;8.596;2023-11-19T00:27:44;9.00;99.90
6738;DHT22;3406;49.902;8.596;2023-11-19T00:30:11;9.00;99.90
6738;DHT22;3406;49.902;8.596;2023-11-19T00:32:39;9.10;99.90
6738;DHT22;3406;49.902;8.596;2023-11-19T00:35:06;9.10;99.90
6738;DHT22;3406;49.902;8.596;2023-11-19T00:37:33;9.10;99.90
6738;DHT22;3406;49.902;8.596;2023-11-19T00:40:01;9.10;99.90
6738;DHT22;3406;49.902;8.596;2023-11-19T00:42:30;9.10;99.90
6738;DHT22;3406;49.902;8.596;2023-11-19T00:44:57;9.20;99.90
6738;DHT22;3406;49.902;8.596;2023-11-19T00:47:24;9.20;99.90
6738;DHT22;3406;49.902;8.596;2023-11-19T00:49:51;9.10;99.90
6738;DHT22;3406;49.902;8.596;2023-11-19T00:52:18;9.20;99.90
6738;DHT22;3406;49.902;8.596;2023-11-19T00:54:45;9.10;99.90
6738;DHT22;3406;49.902;8.596;2023-11-19T00:57:13;9.20;99.90
6738;DHT22;3406;49.902;8.596;2023-11-19T00:59:41;9.20;99.90
6738;DHT22;3406;49.902;8.596;2023-11-19T01:02:08;9.20;99.90
6738;DHT22;3406;49.902;8.596;2023-11-19T01:04:35;9.20;99.90
6738;DHT22;3406;49.902;8.596;2023-11-19T01:07:02;9.20;99.90
6738;DHT22;3406;49.902;8.596;2023-11-19T01:09:30;9.30;99.90
6738;DHT22;3406;49.902;8.596;2023-11-19T01:11:57;9.30;99.90
6738;DHT22;3406;49.902;8.596;2023-11-19T01:14:27;9.30;99.90
6738;DHT22;3406;49.902;8.596;2023-11-19T01:16:54;9.30;99.90
6738;DHT22;3406;49.902;8.596;2023-11-19T01:19:21;9.40;99.90
6738;DHT22;3406;49.902;8.596;2023-11-19T01:21:48;9.30;99.90
6738;DHT22;3406;49.902;8.596;2023-11-19T01:24:15;9.30;99.90
6738;DHT22;3406;49.902;8.596;2023-11-19T01:26:43;9.40;99.90
6738;DHT22;3406;49.902;8.596;2023-11-19T01:29:10;9.30;99.90
6738;DHT22;3406;49.902;8.596;2023-11-19T01:31:40;9.40;99.90
6738;DHT22;3406;49.902;8.596;2023-11-19T01:34:07;9.30;99.90
6738;DHT22;3406;49.902;8.596;2023-11-19T01:36:33;9.30;99.90
6738;DHT22;3406;49.902;8.596;2023-11-19T01:39:00;9.40;99.90
6738;DHT22;3406;49.902;8.596;2023-11-19T01:41:28;9.40;99.90
6738;DHT22;3406;49.902;8.596;2023-11-19T01:43:55;9.40;99.90
6738;DHT22;3406;49.902;8.596;2023-11-19T01:46:21;9.40;99.90
6738;DHT22;3406;49.902;8.596;2023-11-19T01:48:49;9.40;99.90
6738;DHT22;3406;49.902;8.596;2023-11-19T01:51:16;9.40;99.90
6738;DHT22;3406;49.902;8.596;2023-11-19T01:53:44;9.40;99.90
6738;DHT22;3406;49.902;8.596;2023-11-19T01:56:14;9.50;99.90
6738;DHT22;3406;49.902;8.596;2023-11-19T01:58:42;9.50;99.90
6738;DHT22;3406;49.902;8.596;2023-11-19T02:01:09;9.50;99.90
6738;DHT22;3406;49.902;8.596;2023-11-19T02:03:37;9.50;99.90
6738;DHT22;3406;49.902;8.596;2023-11-19T02:06:06;9.60;99.90
6738;DHT22;3406;49.902;8.596;2023-11-19T02:08:35;9.60;99.90
6738;DHT22;3406;49.902;8.596;2023-11-19T02:11:02;9.60;99.90
6738;DHT22;3406;49.902;8.596;2023-11-19T02:13:29;9.60;99.90
6738;DHT22;3406;49.902;8.596;2023-11-19T02:15:56;9.60;99.90
6738;DHT22;3406;49.902;8.596;2023-11-19T02:18:24;9.60;99.90
6738;DHT22;3406;49.902;8.596;2023-11-19T02:20:53;9.70;99.90
6738;DHT22;3406;49.902;8.596;2023-11-19T02:23:21;9.70;99.90
6738;DHT22;3406;49.902;8.596;2023-11-19T02:26:03;9.70;99.90
6738;DHT22;3406;49.902;8.596;2023-11-19T02:28:33;9.70;99.90
6738;DHT22;3406;49.902;8.596;2023-11-19T02:31:00;9.70;99.90
6738;DHT22;3406;49.902;8.596;2023-11-19T02:33:27;9.80;99.90
6738;DHT22;3406;49.902;8.596;2023-11-19T02:35:54;9.80;99.90
6738;DHT22;3406;49.902;8.596;2023-11-19T02:38:21;9.80;99.90
6738;DHT22;3406;49.902;8.596;2023-11-19T02:40:48;9.80;99.90
6738;DHT22;3406;49.902;8.596;2023-11-19T02:43:15;9.90;99.90
6738;DHT22;3406;49.902;8.596;2023-11-19T02:45:43;9.90;99.90
6738;DHT22;3406;49.902;8.596;2023-11-19T02:48:11;9.90;99.90
6738;DHT22;3406;49.902;8.596;2023-11-19T02:50:39;9.90;99.90
6738;DHT22;3406;49.902;8.596;2023-11-19T02:53:06;10.00;99.90
6738;DHT22;3406;49.902;8.596;2023-11-19T02:55:33;10.00;99.90
6738;DHT22;3406;49.902;8.596;2023-11-19T02:58:03;10.00;99.90
6738;DHT22;3406;49.902;8.596;2023-11-19T03:00:35;10.00;99.90
6738;DHT22;3406;49.902;8.596;2023-11-19T03:03:08;10.00;99.90
6738;DHT22;3406;49.902;8.596;2023-11-19T03:05:45;10.10;99.90
6738;DHT22;3406;49.902;8.596;2023-11-19T03:08:12;10.00;99.90
6738;DHT22;3406;49.902;8.596;2023-11-19T03:10:38;10.10;99.90
6738;DHT22;3406;49.902;8.596;2023-11-19T03:13:05;10.10;99.90
6738;DHT22;3406;49.902;8.596;2023-11-19T03:15:37;10.10;99.90
6738;DHT22;3406;49.902;8.596;2023-11-19T03:18:04;10.10;99.90
6738;DHT22;3406;49.902;8.596;2023-11-19T03:20:31;10.10;99.90
6738;DHT22;3406;49.902;8.596;2023-11-19T03:22:58;10.10;99.90
6738;DHT22;3406;49.902;8.596;2023-11-19T03:25:27;10.10;99.90
6738;DHT22;3406;49.902;8.596;2023-11-19T03:27:58;10.20;99.90
6738;DHT22;3406;49.902;8.596;2023-11-19T03:30:25;10.20;99.90
6738;DHT22;3406;49.902;8.596;2023-11-19T03:32:51;10.20;99.90
6738;DHT22;3406;49.902;8.596;2023-11-19T03:35:18;10.20;99.90
6738;DHT22;3406;49.902;8.596;2023-11-19T03:37:47;10.20;99.90
6738;DHT22;3406;49.902;8.596;2023-11-19T03:40:14;10.20;99.90
6738;DHT22;3406;49.902;8.596;2023-11-19T03:42:40;10.20;99.90
6738;DHT22;3406;49.902;8.596;2023-11-19T03:45:07;10.20;99.90
6738;DHT22;3406;49.902;8.596;2023-11-19T03:47:34;10.20;99.90
6738;DHT22;3406;49.902;8.596;2023-11-19T03:50:01;10.10;99.90
6738;DHT22;3406;49.902;8.596;2023-11-19T03:52:29;10.20;99.90
6738;DHT22;3406;49.902;8.596;2023-11-19T03:54:57;10.20;99.90
6738;DHT22;3406;49.902;8.596;2023-11-19T03:57:23;10.20;99.90
6738;DHT22;3406;49.902;8.596;2023-11-19T03:59:50;10.20;99.90
6738;DHT22;3406;49.902;8.596;2023-11-19T04:02:17;10.20;99.90
6738;DHT22;3406;49.902;8.596;2023-11-19T04:04:44;10.20;99.90
6738;DHT22;3406;49.902;8.596;2023-11-19T04:07:10;10.30;99.90
6738;DHT22;3406;49.902;8.596;2023-11-19T04:09:37;10.20;99.90
6738;DHT22;3406;49.902;8.596;2023-11-19T04:12:06;10.20;99.90
6738;DHT22;3406;49.902;8.596;2023-11-19T04:14:33;10.20;99.90
6738;DHT22;3406;49.902;8.596;2023-11-19T04:17:00;10.30;99.90
6738;DHT22;3406;49.902;8.596;2023-11-19T04:19:26;10.30;99.90
6738;DHT22;3406;49.902;8.596;2023-11-19T04:21:54;10.30;99.90
6738;DHT22;3406;49.902;8.596;2023-11-19T04:24:20;10.30;99.90
6738;DHT22;3406;49.902;8.596;2023-11-19T04:26:47;10.30;99.90
6738;DHT22;3406;49.902;8.596;2023-11-19T04:29:16;10.30;99.90
6738;DHT22;3406;49.902;8.596;2023-11-19T04:31:43;10.30;99.90
6738;DHT22;3406;49.902;8.596;2023-11-19T04:34:11;10.30;99.90
6738;DHT22;3406;49.902;8.596;2023-11-19T04:36:38;10.30;99.90
6738;DHT22;3406;49.902;8.596;2023-11-19T04:39:05;10.40;99.90
6738;DHT22;3406;49.902;8.596;2023-11-19T04:41:34;10.40;99.90
6738;DHT22;3406;49.902;8.596;2023-11-19T04:44:01;10.40;99.90
6738;DHT22;3406;49.902;8.596;2023-11-19T04:46:29;10.40;99.90
6738;DHT22;3406;49.902;8.596;2023-11-19T04:48:56;10.40;99.90
6738;DHT22;3406;49.902;8.596;2023-11-19T04:51:22;10.40;99.90
6738;DHT22;3406;49.902;8.596;2023-11-19T04:53:49;10.50;99.90
6738;DHT22;3406;49.902;8.596;2023-11-19T04:56:16;10.40;99.90
6738;DHT22;3406;49.902;8.596;2023-11-19T04:58:45;10.50;99.90
6738;DHT22;3406;49.902;8.596;2023-11-19T05:01:14;10.50;99.90
6738;DHT22;3406;49.902;8.596;2023-11-19T05:03:43;10.50;99.90
6738;DHT22;3406;49.902;8.596;2023-11-19T05:06:10;10.50;99.90
6738;DHT22;3406;49.902;8.596;2023-11-19T05:08:37;10.60;99.90
6738;DHT22;3406;49.902;8.596;2023-11-19T05:11:04;10.60;99.90
6738;DHT22;3406;49.902;8.596;2023-11-19T05:13:31;10.60;99.90
6738;DHT22;3406;49.902;8.596;2023-11-19T05:15:58;10.60;99.90
6738;DHT22;3406;49.902;8.596;2023-11-19T05:18:24;10.60;99.90
6738;DHT22;3406;49.902;8.596;2023-11-19T05:20:52;10.60;99.90
6738;DHT22;3406;49.902;8.596;2023-11-19T05:23:19;10.70;99.90
6738;DHT22;3406;49.902;8.596;2023-11-19T05:25:45;10.60;99.90
6738;DHT22;3406;49.902;8.596;2023-11-19T05:28:13;10.70;99.90
6738;DHT22;3406;49.902;8.596;2023-11-19T05:30:40;10.70;99.90
6738;DHT22;3406;49.902;8.596;2023-11-19T05:33:07;10.70;99.90
6738;DHT22;3406;49.902;8.596;2023-11-19T05:35:34;10.70;99.90
6738;DHT22;3406;49.902;8.596;2023-11-19T05:38:02;10.80;99.90
6738;DHT22;3406;49.902;8.596;2023-11-19T05:40:29;10.80;99.90
6738;DHT22;3406;49.902;8.596;2023-11-19T05:42:55;10.80;99.90
6738;DHT22;3406;49.902;8.596;2023-11-19T05:45:22;10.80;99.90
6738;DHT22;3406;49.902;8.596;2023-11-19T05:47:49;10.90;99.90
6738;DHT22;3406;49.902;8.596;2023-11-19T05:50:17;10.90;99.90
6738;DHT22;3406;49.902;8.596;2023-11-19T05:52:44;10.90;99.90
6738;DHT22;3406;49.902;8.596;2023-11-19T05:55:11;10.90;99.90
6738;DHT22;3406;49.902;8.596;2023-11-19T05:57:39;10.90;99.90
6738;DHT22;3406;49.902;8.596;2023-11-19T06:00:07;10.90;99.90
6738;DHT22;3406;49.902;8.596;2023-11-19T06:02:36;10.90;99.90
6738;DHT22;3406;49.902;8.596;2023-11-19T06:05:04;10.90;99.90
6738;DHT22;3406;49.902;8.596;2023-11-19T06:07:32;10.90;99.90
6738;DHT22;3406;49.902;8.596;2023-11-19T06:09:58;11.00;99.90
6738;DHT22;3406;49.902;8.596;2023-11-19T06:12:26;11.00;99.90
6738;DHT22;3406;49.902;8.596;2023-11-19T06:14:53;11.00;99.90
6738;DHT22;3406;49.902;8.596;2023-11-19T06:17:20;11.00;99.90
6738;DHT22;3406;49.902;8.596;2023-11-19T06:19:47;11.00;99.90
6738;DHT22;3406;49.902;8.596;2023-11-19T06:22:13;11.00;99.90
6738;DHT22;3406;49.902;8.596;2023-11-19T06:24:40;11.00;99.90
6738;DHT22;3406;49.902;8.596;2023-11-19T06:27:07;11.00;99.90
6738;DHT22;3406;49.902;8.596;2023-11-19T06:29:35;11.00;99.90
6738;DHT22;3406;49.902;8.596;2023-11-19T06:32:02;11.00;99.90
6738;DHT22;3406;49.902;8.596;2023-11-19T06:34:28;11.00;99.90
6738;DHT22;3406;49.902;8.596;2023-11-19T06:36:55;11.00;99.90
6738;DHT22;3406;49.902;8.596;2023-11-19T06:39:22;11.00;99.90
6738;DHT22;3406;49.902;8.596;2023-11-19T06:41:48;11.00;99.90
6738;DHT22;3406;49.902;8.596;2023-11-19T06:44:15;11.10;99.90
6738;DHT22;3406;49.902;8.596;2023-11-19T06:46:43;11.10;99.90
6738;DHT22;3406;49.902;8.596;2023-11-19T06:49:10;11.10;99.90
6738;DHT22;3406;49.902;8.596;2023-11-19T06:51:41;11.10;99.90
6738;DHT22;3406;49.902;8.596;2023-11-19T06:54:09;11.20;99.90
6738;DHT22;3406;49.902;8.596;2023-11-19T06:56:36;11.20;99.90
6738;DHT22;3406;49.902;8.596;2023-11-19T06:59:02;11.20;99.90
6738;DHT22;3406;49.902;8.596;2023-11-19T07:01:34;11.20;99.90
6738;DHT22;3406;49.902;8.596;2023-11-19T07:04:02;11.20;99.90
6738;DHT22;3406;49.902;8.596;2023-11-19T07:06:33;11.20;99.90
6738;DHT22;3406;49.902;8.596;2023-11-19T07:09:00;11.30;99.90
6738;DHT22;3406;49.902;8.596;2023-11-19T07:11:34;11.30;99.90
6738;DHT22;3406;49.902;8.596;2023-11-19T07:14:02;11.30;99.90
6738;DHT22;3406;49.902;8.596;2023-11-19T07:16:29;11.30;99.90
6738;DHT22;3406;49.902;8.596;2023-11-19T07:18:56;11.30;99.90
6738;DHT22;3406;49.902;8.596;2023-11-19T07:21:25;11.30;99.90
6738;DHT22;3406;49.902;8.596;2023-11-19T07:23:53;11.30;99.90
6738;DHT22;3406;49.902;8.596;2023-11-19T07:26:20;11.30;99.90
6738;DHT22;3406;49.902;8.596;2023-11-19T07:28:47;11.40;99.90
6738;DHT22;3406;49.902;8.596;2023-11-19T07:31:13;11.40;99.90
6738;DHT22;3406;49.902;8.596;2023-11-19T07:33:40;11.40;99.90
6738;DHT22;3406;49.902;8.596;2023-11-19T07:36:08;11.40;99.90
6738;DHT22;3406;49.902;8.596;2023-11-19T07:38:36;11.40;99.90
6738;DHT22;3406;49.902;8.596;2023-11-19T07:41:04;11.40;99.90
6738;DHT22;3406;49.902;8.596;2023-11-19T07:43:32;11.40;99.90
6738;DHT22;3406;49.902;8.596;2023-11-19T07:45:58;11.40;99.90
6738;DHT22;3406;49.902;8.596;2023-11-19T07:48:25;11.40;99.90
6738;DHT22;3406;49.902;8.596;2023-11-19T07:50:53;11.50;99.90
6738;DHT22;3406;49.902;8.596;2023-11-19T07:53:20;11.50;99.90
6738;DHT22;3406;49.902;8.596;2023-11-19T07:55:48;11.60;99.90
6738;DHT22;3406;49.902;8.596;2023-11-19T07:58:14;11.60;99.90
6738;DHT22;3406;49.902;8.596;2023-11-19T08:00:41;11.60;99.90
6738;DHT22;3406;49.902;8.596;2023-11-19T08:03:08;11.60;99.90
6738;DHT22;3406;49.902;8.596;2023-11-19T08:05:34;11.70;99.90
6738;DHT22;3406;49.902;8.596;2023-11-19T08:08:01;11.70;99.90
6738;DHT22;3406;49.902;8.596;2023-11-19T08:10:28;11.70;99.90
6738;DHT22;3406;49.902;8.596;2023-11-19T08:12:56;11.80;99.90
6738;DHT22;3406;49.902;8.596;2023-11-19T08:15:23;11.80;99.90
6738;DHT22;3406;49.902;8.596;2023-11-19T08:17:49;11.80;99.90
6738;DHT22;3406;49.902;8.596;2023-11-19T08:20:16;11.90;99.90
6738;DHT22;3406;49.902;8.596;2023-11-19T08:22:43;11.90;99.90
6738;DHT22;3406;49.902;8.596;2023-11-19T08:25:10;11.90;99.90
6738;DHT22;3406;49.902;8.596;2023-11-19T08:27:36;12.00;99.90
6738;DHT22;3406;49.902;8.596;2023-11-19T08:30:06;12.00;99.90
6738;DHT22;3406;49.902;8.596;2023-11-19T08:32:33;12.00;99.90
6738;DHT22;3406;49.902;8.596;2023-11-19T08:35:01;12.10;99.90
6738;DHT22;3406;49.902;8.596;2023-11-19T08:37:27;12.10;99.90
6738;DHT22;3406;49.902;8.596;2023-11-19T08:39:54;12.20;99.90
6738;DHT22;3406;49.902;8.596;2023-11-19T08:42:21;12.30;99.90
6738;DHT22;3406;49.902;8.596;2023-11-19T08:44:50;12.30;99.90
6738;DHT22;3406;49.902;8.596;2023-11-19T08:47:20;12.30;99.90
6738;DHT22;3406;49.902;8.596;2023-11-19T08:49:48;12.40;99.90
6738;DHT22;3406;49.902;8.596;2023-11-19T08:52:17;12.40;99.90
6738;DHT22;3406;49.902;8.596;2023-11-19T08:54:44;12.50;99.90
6738;DHT22;3406;49.902;8.596;2023-11-19T08:57:11;12.50;99.90
6738;DHT22;3406;49.902;8.596;2023-11-19T08:59:37;12.50;99.90
6738;DHT22;3406;49.902;8.596;2023-11-19T09:02:04;12.50;99.90
6738;DHT22;3406;49.902;8.596;2023-11-19T09:04:32;12.50;99.90
6738;DHT22;3406;49.902;8.596;2023-11-19T09:06:59;12.60;99.90
6738;DHT22;3406;49.902;8.596;2023-11-19T09:09:25;12.60;99.90
6738;DHT22;3406;49.902;8.596;2023-11-19T09:11:52;12.70;99.90
6738;DHT22;3406;49.902;8.596;2023-11-19T09:14:19;12.80;99.90
6738;DHT22;3406;49.902;8.596;2023-11-19T09:16:49;12.80;99.90
6738;DHT22;3406;49.902;8.596;2023-11-19T09:19:16;12.90;99.90
6738;DHT22;3406;49.902;8.596;2023-11-19T09:21:44;12.90;99.90
6738;DHT22;3406;49.902;8.596;2023-11-19T09:24:11;12.90;99.90
6738;DHT22;3406;49.902;8.596;2023-11-19T09:26:37;12.90;99.90
6738;DHT22;3406;49.902;8.596;2023-11-19T09:29:06;12.90;99.90
6738;DHT22;3406;49.902;8.596;2023-11-19T09:31:34;13.00;99.90
6738;DHT22;3406;49.902;8.596;2023-11-19T09:34:00;12.90;99.90
6738;DHT22;3406;49.902;8.596;2023-11-19T09:36:27;12.90;99.90
6738;DHT22;3406;49.902;8.596;2023-11-19T09:38:55;13.00;99.90
6738;DHT22;3406;49.902;8.596;2023-11-19T09:41:23;13.00;99.90
6738;DHT22;3406;49.902;8.596;2023-11-19T09:43:51;12.90;99.90
6738;DHT22;3406;49.902;8.596;2023-11-19T09:46:18;12.90;99.90
6738;DHT22;3406;49.902;8.596;2023-11-19T09:48:45;12.90;99.90
6738;DHT22;3406;49.902;8.596;2023-11-19T09:51:13;12.90;99.90
6738;DHT22;3406;49.902;8.596;2023-11-19T09:53:40;13.00;99.90
6738;DHT22;3406;49.902;8.596;2023-11-19T09:56:09;13.00;99.90
6738;DHT22;3406;49.902;8.596;2023-11-19T09:58:35;13.10;99.90
6738;DHT22;3406;49.902;8.596;2023-11-19T10:01:02;13.10;99.90
6738;DHT22;3406;49.902;8.596;2023-11-19T10:03:33;13.10;99.90
6738;DHT22;3406;49.902;8.596;2023-11-19T10:06:01;13.10;99.90
6738;DHT22;3406;49.902;8.596;2023-11-19T10:08:29;13.10;99.90
6738;DHT22;3406;49.902;8.596;2023-11-19T10:10:56;13.10;99.90
6738;DHT22;3406;49.902;8.596;2023-11-19T10:13:28;13.10;99.90
6738;DHT22;3406;49.902;8.596;2023-11-19T10:15:55;13.20;99.90
6738;DHT22;3406;49.902;8.596;2023-11-19T10:18:24;13.20;99.90
6738;DHT22;3406;49.902;8.596;2023-11-19T10:20:52;13.30;99.90
6738;DHT22;3406;49.902;8.596;2023-11-19T10:23:18;13.40;99.90
6738;DHT22;3406;49.902;8.596;2023-11-19T10:25:45;13.40;99.90
6738;DHT22;3406;49.902;8.596;2023-11-19T10:28:15;13.50;99.90
6738;DHT22;3406;49.902;8.596;2023-11-19T10:30:43;13.50;99.90
6738;DHT22;3406;49.902;8.596;2023-11-19T10:33:10;13.50;99.90
6738;DHT22;3406;49.902;8.596;2023-11-19T10:35:51;13.60;99.90
6738;DHT22;3406;49.902;8.596;2023-11-19T10:38:18;13.60;99.90
6738;DHT22;3406;49.902;8.596;2023-11-19T10:40:45;13.60;99.90
6738;DHT22;3406;49.902;8.596;2023-11-19T10:43:12;13.60;99.90
6738;DHT22;3406;49.902;8.596;2023-11-19T10:45:39;13.60;99.90
6738;DHT22;3406;49.902;8.596;2023-11-19T10:48:08;13.70;99.90
6738;DHT22;3406;49.902;8.596;2023-11-19T10:50:36;13.70;99.90
6738;DHT22;3406;49.902;8.596;2023-11-19T10:53:03;13.70;99.90
6738;DHT22;3406;49.902;8.596;2023-11-19T10:55:31;13.80;99.90
6738;DHT22;3406;49.902;8.596;2023-11-19T10:58:01;13.90;99.90
6738;DHT22;3406;49.902;8.596;2023-11-19T11:00:29;14.00;99.90
6738;DHT22;3406;49.902;8.596;2023-11-19T11:03:01;14.00;99.90
6738;DHT22;3406;49.902;8.596;2023-11-19T11:05:32;14.10;99.90
6738;DHT22;3406;49.902;8.596;2023-11-19T11:08:00;14.10;99.90
6738;DHT22;3406;49.902;8.596;2023-11-19T11:10:28;14.20;99.90
6738;DHT22;3406;49.902;8.596;2023-11-19T11:12:59;14.20;99.90
6738;DHT22;3406;49.902;8.596;2023-11-19T11:15:30;14.30;99.90
6738;DHT22;3406;49.902;8.596;2023-11-19T11:18:00;14.40;99.90
6738;DHT22;3406;49.902;8.596;2023-11-19T11:20:30;14.40;99.90
6738;DHT22;3406;49.902;8.596;2023-11-19T11:23:20;14.60;99.90
6738;DHT22;3406;49.902;8.596;2023-11-19T11:26:00;14.70;99.90
6738;DHT22;3406;49.902;8.596;2023-11-19T11:28:35;14.80;99.90
6738;DHT22;3406;49.902;8.596;2023-11-19T11:31:12;14.90;99.90
6738;DHT22;3406;49.902;8.596;2023-11-19T11:34:09;15.00;99.90
6738;DHT22;3406;49.902;8.596;2023-11-19T11:36:48;15.10;99.90
6738;DHT22;3406;49.902;8.596;2023-11-19T11:39:21;15.20;99.90
6738;DHT22;3406;49.902;8.596;2023-11-19T11:42:30;15.20;99.90
6738;DHT22;3406;49.902;8.596;2023-11-19T11:45:00;15.20;99.90
6738;DHT22;3406;49.902;8.596;2023-11-19T11:50:29;15.20;99.90
6738;DHT22;3406;49.902;8.596;2023-11-19T11:53:17;15.20;99.90
6738;DHT22;3406;49.902;8.596;2023-11-19T11:55:55;15.20;99.90
6738;DHT22;3406;49.902;8.596;2023-11-19T11:58:31;15.20;99.90
6738;DHT22;3406;49.902;8.596;2023-11-19T12:00:58;15.20;99.90
6738;DHT22;3406;49.902;8.596;2023-11-19T12:03:27;15.20;99.90
6738;DHT22;3406;49.902;8.596;2023-11-19T12:05:54;15.30;99.90
6738;DHT22;3406;49.902;8.596;2023-11-19T12:08:25;15.30;99.80
6738;DHT22;3406;49.902;8.596;2023-11-19T12:10:54;15.30;97.50
6738;DHT22;3406;49.902;8.596;2023-11-19T12:13:23;15.40;95.70
6738;DHT22;3406;49.902;8.596;2023-11-19T12:16:09;15.60;94.70
6738;DHT22;3406;49.902;8.596;2023-11-19T12:18:39;15.60;93.40
6738;DHT22;3406;49.902;8.596;2023-11-19T12:21:06;15.70;91.70
6738;DHT22;3406;49.902;8.596;2023-11-19T12:23:44;15.80;90.00
6738;DHT22;3406;49.902;8.596;2023-11-19T12:26:32;15.70;88.70
6738;DHT22;3406;49.902;8.596;2023-11-19T12:29:00;15.70;87.70
6738;DHT22;3406;49.902;8.596;2023-11-19T12:31:29;15.70;87.00
6738;DHT22;3406;49.902;8.596;2023-11-19T12:33:55;15.70;85.90
6738;DHT22;3406;49.902;8.596;2023-11-19T12:36:22;15.70;83.90
6738;DHT22;3406;49.902;8.596;2023-11-19T12:38:50;15.70;82.10
6738;DHT22;3406;49.902;8.596;2023-11-19T12:41:17;15.70;80.60
6738;DHT22;3406;49.902;8.596;2023-11-19T12:43:47;15.70;79.10
6738;DHT22;3406;49.902;8.596;2023-11-19T12:46:17;15.70;78.10
6738;DHT22;3406;49.902;8.596;2023-11-19T12:48:45;15.70;77.70
6738;DHT22;3406;49.902;8.596;2023-11-19T12:51:12;15.70;77.20
6738;DHT22;3406;49.902;8.596;2023-11-19T12:53:47;15.70;75.60
6738;DHT22;3406;49.902;8.596;2023-11-19T12:56:16;15.70;75.40
6738;DHT22;3406;49.902;8.596;2023-11-19T12:58:43;15.70;74.70
6738;DHT22;3406;49.902;8.596;2023-11-19T13:01:16;15.70;73.90
6738;DHT22;3406;49.902;8.596;2023-11-19T13:03:43;15.70;73.00
6738;DHT22;3406;49.902;8.596;2023-11-19T13:06:11;15.70;72.30
6738;DHT22;3406;49.902;8.596;2023-11-19T13:08:38;15.70;71.60
6738;DHT22;3406;49.902;8.596;2023-11-19T13:11:06;15.60;71.00
6738;DHT22;3406;49.902;8.596;2023-11-19T13:13:53;15.60;70.70
6738;DHT22;3406;49.902;8.596;2023-11-19T13:16:20;15.50;70.80
6738;DHT22;3406;49.902;8.596;2023-11-19T13:18:47;15.50;71.00
6738;DHT22;3406;49.902;8.596;2023-11-19T13:21:14;15.50;71.30
6738;DHT22;3406;49.902;8.596;2023-11-19T13:23:40;15.50;71.70
6738;DHT22;3406;49.902;8.596;2023-11-19T13:26:08;15.50;72.00
6738;DHT22;3406;49.902;8.596;2023-11-19T13:28:36;15.50;71.80
6738;DHT22;3406;49.902;8.596;2023-11-19T13:31:03;15.60;71.70
6738;DHT22;3406;49.902;8.596;2023-11-19T13:33:30;15.70;71.90
6738;DHT22;3406;49.902;8.596;2023-11-19T13:35:56;15.70;71.80
6738;DHT22;3406;49.902;8.596;2023-11-19T13:38:23;15.70;72.00
6738;DHT22;3406;49.902;8.596;2023-11-19T13:40:50;15.80;72.30
6738;DHT22;3406;49.902;8.596;2023-11-19T13:43:17;15.80;72.60
6738;DHT22;3406;49.902;8.596;2023-11-19T13:45:45;15.90;72.60
6738;DHT22;3406;49.902;8.596;2023-11-19T13:48:12;15.90;72.50
6738;DHT22;3406;49.902;8.596;2023-11-19T13:50:38;15.90;72.40
6738;DHT22;3406;49.902;8.596;2023-11-19T13:53:05;15.80;72.30
6738;DHT22;3406;49.902;8.596;2023-11-19T13:55:32;15.70;72.50
6738;DHT22;3406;49.902;8.596;2023-11-19T13:57:59;15.60;72.70
6738;DHT22;3406;49.902;8.596;2023-11-19T14:00:25;15.50;73.00
6738;DHT22;3406;49.902;8.596;2023-11-19T14:02:53;15.40;73.20
6738;DHT22;3406;49.902;8.596;2023-11-19T14:05:20;15.40;73.40
6738;DHT22;3406;49.902;8.596;2023-11-19T14:07:46;15.40;73.90
6738;DHT22;3406;49.902;8.596;2023-11-19T14:10:14;15.70;74.10
6738;DHT22;3406;49.902;8.596;2023-11-19T14:12:41;15.80;73.70
6738;DHT22;3406;49.902;8.596;2023-11-19T14:15:09;15.90;73.60
6738;DHT22;3406;49.902;8.596;2023-11-19T14:17:38;15.90;73.10
6738;DHT22;3406;49.902;8.596;2023-11-19T14:20:07;15.90;73.00
6738;DHT22;3406;49.902;8.596;2023-11-19T14:22:38;15.80;72.80
6738;DHT22;3406;49.902;8.596;2023-11-19T14:25:05;15.60;72.40
6738;DHT22;3406;49.902;8.596;2023-11-19T14:27:35;15.60;72.60
6738;DHT22;3406;49.902;8.596;2023-11-19T14:30:02;15.50;71.60
6738;DHT22;3406;49.902;8.596;2023-11-19T14:32:28;15.50;71.70
6738;DHT22;3406;49.902;8.596;2023-11-19T14:34:55;15.40;71.10
6738;DHT22;3406;49.902;8.596;2023-11-19T14:37:23;15.50;71.00
6738;DHT22;3406;49.902;8.596;2023-11-19T14:39:50;15.40;70.50
6738;DHT22;3406;49.902;8.596;2023-11-19T14:42:17;15.40;70.60
6738;DHT22;3406;49.902;8.596;2023-11-19T14:44:43;15.40;70.60
6738;DHT22;3406;49.902;8.596;2023-11-19T14:47:10;15.30;70.30
6738;DHT22;3406;49.902;8.596;2023-11-19T14:49:37;15.30;70.50
6738;DHT22;3406;49.902;8.596;2023-11-19T14:52:04;15.20;70.70
6738;DHT22;3406;49.902;8.596;2023-11-19T14:54:32;15.20;71.00
6738;DHT22;3406;49.902;8.596;2023-11-19T14:56:58;15.20;71.40
6738;DHT22;3406;49.902;8.596;2023-11-19T14:59:26;15.20;71.70
6738;DHT22;3406;49.902;8.596;2023-11-19T15:01:53;15.10;71.30
6738;DHT22;3406;49.902;8.596;2023-11-19T15:04:20;15.10;70.90
6738;DHT22;3406;49.902;8.596;2023-11-19T15:06:46;15.10;70.60
6738;DHT22;3406;49.902;8.596;2023-11-19T15:09:13;14.90;70.60
6738;DHT22;3406;49.902;8.596;2023-11-19T15:11:43;14.90;70.60
6738;DHT22;3406;49.902;8.596;2023-11-19T15:14:11;14.80;70.60
6738;DHT22;3406;49.902;8.596;2023-11-19T15:16:40;14.70;70.60
6738;DHT22;3406;49.902;8.596;2023-11-19T15:19:07;14.60;70.70
6738;DHT22;3406;49.902;8.596;2023-11-19T15:21:33;14.50;70.80
6738;DHT22;3406;49.902;8.596;2023-11-19T15:24:00;14.50;71.00
6738;DHT22;3406;49.902;8.596;2023-11-19T15:26:29;14.40;71.10
6738;DHT22;3406;49.902;8.596;2023-11-19T15:28:57;14.30;71.10
6738;DHT22;3406;49.902;8.596;2023-11-19T15:31:24;14.30;71.30
6738;DHT22;3406;49.902;8.596;2023-11-19T15:33:51;14.20;71.30
6738;DHT22;3406;49.902;8.596;2023-11-19T15:36:17;14.10;71.30
6738;DHT22;3406;49.902;8.596;2023-11-19T15:38:44;14.10;71.30
6738;DHT22;3406;49.902;8.596;2023-11-19T15:41:11;14.00;71.30
6738;DHT22;3406;49.902;8.596;2023-11-19T15:43:38;14.00;71.30
6738;DHT22;3406;49.902;8.596;2023-11-19T15:46:07;13.90;71.30
6738;DHT22;3406;49.902;8.596;2023-11-19T15:48:34;13.90;71.40
6738;DHT22;3406;49.902;8.596;2023-11-19T15:51:01;13.80;71.30
6738;DHT22;3406;49.902;8.596;2023-11-19T15:53:28;13.80;71.40
6738;DHT22;3406;49.902;8.596;2023-11-19T15:55:56;13.80;71.50
6738;DHT22;3406;49.902;8.596;2023-11-19T15:58:22;13.70;71.40
6738;DHT22;3406;49.902;8.596;2023-11-19T16:00:49;13.70;71.30
6738;DHT22;3406;49.902;8.596;2023-11-19T16:03:17;13.70;71.10
6738;DHT22;3406;49.902;8.596;2023-11-19T16:05:44;13.70;70.80
6738;DHT22;3406;49.902;8.596;2023-11-19T16:08:10;13.70;70.80
6738;DHT22;3406;49.902;8.596;2023-11-19T16:10:37;13.60;70.60
6738;DHT22;3406;49.902;8.596;2023-11-19T16:13:08;13.60;70.40